sensor_id;sensor_type;location;lat;lon;timestamp;pressure;altitude;pressure_sealevel;temperature;humidity
74125;BME280;62475;52.192;5.396;2022-07-29T00:02:01;101913.38;;;15.79;69.42
74125;BME280;62475;52.192;5.396;2022-07-29T00:04:27;101915.03;;;15.80;69.86
74125;BME280;62475;52.192;5.396;2022-07-29T00:06:52;101900.13;;;15.76;69.60
74125;BME280;62475;52.192;5.396;2022-07-29T00:09:17;101890.06;;;15.67;68.84
74125;BME280;62475;52.192;5.396;2022-07-29T00:11:45;101904.84;;;15.76;70.09
74125;BME280;62475;52.192;5.396;2022-07-29T00:14:10;101886.84;;;15.60;69.76
74125;BME280;62475;52.192;5.396;2022-07-29T00:16:36;101903.31;;;15.70;70.41
74125;BME280;62475;52.192;5.396;2022-07-29T00:19:01;101885.41;;;15.62;70.05
74125;BME280;62475;52.192;5.396;2022-07-29T00:21:27;101888.50;;;15.61;70.32
74125;BME280;62475;52.192;5.396;2022-07-29T00:23:52;101891.25;;;15.61;69.79
74125;BME280;62475;52.192;5.396;2022-07-29T00:26:17;101877.28;;;15.52;69.64
74125;BME280;62475;52.192;5.396;2022-07-29T00:28:42;101888.78;;;15.59;69.50
74125;BME280;62475;52.192;5.396;2022-07-29T00:31:08;101885.28;;;15.54;71.33
74125;BME280;62475;52.192;5.396;2022-07-29T00:33:33;101868.00;;;15.43;69.51
74125;BME280;62475;52.192;5.396;2022-07-29T00:35:58;101866.59;;;15.46;70.88
74125;BME280;62475;52.192;5.396;2022-07-29T00:38:24;101872.03;;;15.51;69.65
74125;BME280;62475;52.192;5.396;2022-07-29T00:40:49;101873.91;;;15.55;70.32
74125;BME280;62475;52.192;5.396;2022-07-29T00:43:16;101842.38;;;15.33;70.66
74125;BME280;62475;52.192;5.396;2022-07-29T00:45:42;101869.28;;;15.51;70.32
74125;BME280;62475;52.192;5.396;2022-07-29T00:48:08;101861.38;;;15.44;70.22
74125;BME280;62475;52.192;5.396;2022-07-29T00:50:34;101821.09;;;15.15;69.84
74125;BME280;62475;52.192;5.396;2022-07-29T00:53:00;101852.59;;;15.37;70.91
74125;BME280;62475;52.192;5.396;2022-07-29T00:55:26;101839.94;;;15.31;69.93
74125;BME280;62475;52.192;5.396;2022-07-29T00:57:52;101862.16;;;15.45;69.70
74125;BME280;62475;52.192;5.396;2022-07-29T01:00:23;101864.63;;;15.46;69.98
74125;BME280;62475;52.192;5.396;2022-07-29T01:02:49;101846.28;;;15.32;70.94
74125;BME280;62475;52.192;5.396;2022-07-29T01:05:20;101838.28;;;15.30;70.06
74125;BME280;62475;52.192;5.396;2022-07-29T01:07:47;101844.84;;;15.34;70.72
74125;BME280;62475;52.192;5.396;2022-07-29T01:10:14;101853.94;;;15.40;70.16
74125;BME280;62475;52.192;5.396;2022-07-29T01:12:43;101844.94;;;15.29;70.19
74125;BME280;62475;52.192;5.396;2022-07-29T01:15:09;101832.53;;;15.27;70.75
74125;BME280;62475;52.192;5.396;2022-07-29T01:17:57;101840.16;;;15.35;70.19
74125;BME280;62475;52.192;5.396;2022-07-29T01:20:51;101849.59;;;15.34;70.10
74125;BME280;62475;52.192;5.396;2022-07-29T01:26:28;101832.53;;;15.27;72.44
74125;BME280;62475;52.192;5.396;2022-07-29T01:28:59;101833.13;;;15.24;72.22
74125;BME280;62475;52.192;5.396;2022-07-29T01:32:05;101836.41;;;15.26;72.40
74125;BME280;62475;52.192;5.396;2022-07-29T01:37:18;101835.53;;;15.12;72.38
74125;BME280;62475;52.192;5.396;2022-07-29T01:39:47;101833.88;;;15.11;71.87
74125;BME280;62475;52.192;5.396;2022-07-29T01:42:27;101842.41;;;15.14;71.38
74125;BME280;62475;52.192;5.396;2022-07-29T01:45:12;101829.75;;;15.08;72.65
74125;BME280;62475;52.192;5.396;2022-07-29T01:47:43;101840.34;;;15.06;72.43
74125;BME280;62475;52.192;5.396;2022-07-29T01:50:12;101838.69;;;15.05;72.09
74125;BME280;62475;52.192;5.396;2022-07-29T01:52:45;101828.00;;;14.99;71.90
74125;BME280;62475;52.192;5.396;2022-07-29T01:55:14;101825.22;;;14.99;71.41
74125;BME280;62475;52.192;5.396;2022-07-29T01:57:43;101845.34;;;15.04;71.17
74125;BME280;62475;52.192;5.396;2022-07-29T02:00:09;101838.44;;;15.02;70.97
74125;BME280;62475;52.192;5.396;2022-07-29T02:02:37;101826.41;;;14.93;72.08
74125;BME280;62475;52.192;5.396;2022-07-29T02:05:03;101819.31;;;14.87;72.10
74125;BME280;62475;52.192;5.396;2022-07-29T02:07:32;101814.09;;;14.85;71.67
74125;BME280;62475;52.192;5.396;2022-07-29T02:09:58;101831.38;;;14.96;71.72
74125;BME280;62475;52.192;5.396;2022-07-29T02:12:27;101811.63;;;14.84;73.00
74125;BME280;62475;52.192;5.396;2022-07-29T02:14:54;101843.22;;;14.96;72.00
74125;BME280;62475;52.192;5.396;2022-07-29T02:17:25;101824.53;;;14.88;72.83
74125;BME280;62475;52.192;5.396;2022-07-29T02:19:56;101830.91;;;14.89;73.09
74125;BME280;62475;52.192;5.396;2022-07-29T02:22:23;101814.88;;;14.86;71.83
74125;BME280;62475;52.192;5.396;2022-07-29T02:24:50;101827.00;;;14.90;73.04
74125;BME280;62475;52.192;5.396;2022-07-29T02:27:18;101808.72;;;14.75;71.68
74125;BME280;62475;52.192;5.396;2022-07-29T02:29:45;101822.09;;;14.87;73.35
74125;BME280;62475;52.192;5.396;2022-07-29T02:32:13;101823.72;;;14.88;71.72
74125;BME280;62475;52.192;5.396;2022-07-29T02:34:40;101835.84;;;14.92;73.14
74125;BME280;62475;52.192;5.396;2022-07-29T02:37:09;101828.91;;;14.94;73.54
74125;BME280;62475;52.192;5.396;2022-07-29T02:39:35;101827.84;;;14.90;71.84
74125;BME280;62475;52.192;5.396;2022-07-29T02:42:05;101819.09;;;14.83;73.40
74125;BME280;62475;52.192;5.396;2022-07-29T02:44:32;101817.16;;;14.84;73.51
74125;BME280;62475;52.192;5.396;2022-07-29T02:52:52;101822.38;;;14.85;72.73
74125;BME280;62475;52.192;5.396;2022-07-29T02:55:45;101814.09;;;14.85;74.05
74125;BME280;62475;52.192;5.396;2022-07-29T02:58:45;101812.41;;;14.84;73.03
74125;BME280;62475;52.192;5.396;2022-07-29T03:01:08;101811.16;;;14.76;74.36
74125;BME280;62475;52.192;5.396;2022-07-29T03:03:37;101818.34;;;14.77;74.87
74125;BME280;62475;52.192;5.396;2022-07-29T03:06:03;101820.34;;;14.72;73.99
74125;BME280;62475;52.192;5.396;2022-07-29T03:08:31;101809.59;;;14.70;75.29
74125;BME280;62475;52.192;5.396;2022-07-29T03:10:57;101790.59;;;14.64;74.30
74125;BME280;62475;52.192;5.396;2022-07-29T03:13:24;101811.75;;;14.73;75.17
74125;BME280;62475;52.192;5.396;2022-07-29T03:15:51;101821.31;;;14.81;74.70
74125;BME280;62475;52.192;5.396;2022-07-29T03:18:17;101804.19;;;14.79;74.87
74125;BME280;62475;52.192;5.396;2022-07-29T03:20:43;101809.97;;;14.82;75.72
74125;BME280;62475;52.192;5.396;2022-07-29T03:23:08;101805.19;;;14.69;75.38
74125;BME280;62475;52.192;5.396;2022-07-29T03:25:34;101814.06;;;14.66;75.41
74125;BME280;62475;52.192;5.396;2022-07-29T03:27:59;101780.78;;;14.53;74.58
74125;BME280;62475;52.192;5.396;2022-07-29T03:30:25;101806.22;;;14.73;75.10
74125;BME280;62475;52.192;5.396;2022-07-29T03:32:52;101803.44;;;14.73;74.98
74125;BME280;62475;52.192;5.396;2022-07-29T03:35:17;101805.03;;;14.79;75.51
74125;BME280;62475;52.192;5.396;2022-07-29T03:37:44;101796.19;;;14.77;73.96
74125;BME280;62475;52.192;5.396;2022-07-29T03:40:11;101796.50;;;14.76;74.44
74125;BME280;62475;52.192;5.396;2022-07-29T03:42:40;101779.53;;;14.64;75.43
74125;BME280;62475;52.192;5.396;2022-07-29T03:45:07;101793.50;;;14.72;75.98
74125;BME280;62475;52.192;5.396;2022-07-29T03:47:38;101793.28;;;14.69;75.58
74125;BME280;62475;52.192;5.396;2022-07-29T03:50:06;101785.06;;;14.64;74.72
74125;BME280;62475;52.192;5.396;2022-07-29T03:52:34;101774.69;;;14.56;75.66
74125;BME280;62475;52.192;5.396;2022-07-29T03:54:59;101789.16;;;14.66;74.19
74125;BME280;62475;52.192;5.396;2022-07-29T03:57:27;101778.72;;;14.63;75.54
74125;BME280;62475;52.192;5.396;2022-07-29T03:59:53;101767.13;;;14.61;74.87
74125;BME280;62475;52.192;5.396;2022-07-29T04:02:19;101782.75;;;14.71;74.04
74125;BME280;62475;52.192;5.396;2022-07-29T04:04:45;101779.53;;;14.64;74.15
74125;BME280;62475;52.192;5.396;2022-07-29T04:07:12;101774.00;;;14.64;74.85
74125;BME280;62475;52.192;5.396;2022-07-29T04:09:41;101774.88;;;14.59;75.58
74125;BME280;62475;52.192;5.396;2022-07-29T04:12:07;101788.06;;;14.67;76.00
74125;BME280;62475;52.192;5.396;2022-07-29T04:14:33;101781.16;;;14.65;74.48
74125;BME280;62475;52.192;5.396;2022-07-29T04:17:00;101785.28;;;14.67;75.50
74125;BME280;62475;52.192;5.396;2022-07-29T04:19:26;101771.09;;;14.55;74.90
74125;BME280;62475;52.192;5.396;2022-07-29T04:21:51;101784.16;;;14.68;75.45
74125;BME280;62475;52.192;5.396;2022-07-29T04:24:17;101767.78;;;14.53;75.14
74125;BME280;62475;52.192;5.396;2022-07-29T04:26:42;101789.16;;;14.66;75.00
74125;BME280;62475;52.192;5.396;2022-07-29T04:29:08;101773.56;;;14.57;74.83
74125;BME280;62475;52.192;5.396;2022-07-29T04:31:33;101785.38;;;14.62;74.51
74125;BME280;62475;52.192;5.396;2022-07-29T04:33:59;101777.16;;;14.57;75.44
74125;BME280;62475;52.192;5.396;2022-07-29T04:36:24;101765.88;;;14.54;74.50
74125;BME280;62475;52.192;5.396;2022-07-29T04:38:49;101777.00;;;14.67;76.20
74125;BME280;62475;52.192;5.396;2022-07-29T04:41:14;101763.25;;;14.62;75.80
74125;BME280;62475;52.192;5.396;2022-07-29T04:43:40;101772.78;;;14.70;75.71
74125;BME280;62475;52.192;5.396;2022-07-29T04:46:06;101759.94;;;14.60;75.70
74125;BME280;62475;52.192;5.396;2022-07-29T04:48:31;101769.31;;;14.64;74.75
74125;BME280;62475;52.192;5.396;2022-07-29T04:50:57;101781.31;;;14.73;74.41
74125;BME280;62475;52.192;5.396;2022-07-29T04:53:23;101750.38;;;14.53;74.88
74125;BME280;62475;52.192;5.396;2022-07-29T04:55:48;101789.84;;;14.77;73.91
74125;BME280;62475;52.192;5.396;2022-07-29T04:58:14;101785.97;;;14.78;73.98
74125;BME280;62475;52.192;5.396;2022-07-29T05:00:39;101776.00;;;14.77;73.85
74125;BME280;62475;52.192;5.396;2022-07-29T05:03:05;101784.84;;;14.79;73.91
74125;BME280;62475;52.192;5.396;2022-07-29T05:05:30;101788.34;;;14.85;74.25
74125;BME280;62475;52.192;5.396;2022-07-29T05:07:56;101786.94;;;14.87;73.38
74125;BME280;62475;52.192;5.396;2022-07-29T05:10:24;101775.75;;;14.78;74.41
74125;BME280;62475;52.192;5.396;2022-07-29T05:12:50;101790.75;;;14.91;74.08
74125;BME280;62475;52.192;5.396;2022-07-29T05:15:15;101793.19;;;14.93;73.16
74125;BME280;62475;52.192;5.396;2022-07-29T05:17:41;101772.38;;;14.82;74.19
74125;BME280;62475;52.192;5.396;2022-07-29T05:20:07;101788.28;;;14.90;73.43
74125;BME280;62475;52.192;5.396;2022-07-29T05:22:33;101761.91;;;14.78;74.08
74125;BME280;62475;52.192;5.396;2022-07-29T05:24:58;101791.78;;;14.95;73.93
74125;BME280;62475;52.192;5.396;2022-07-29T05:27:23;101787.19;;;14.91;73.39
74125;BME280;62475;52.192;5.396;2022-07-29T05:29:48;101791.88;;;14.90;72.96
74125;BME280;62475;52.192;5.396;2022-07-29T05:32:14;101782.53;;;14.86;74.17
74125;BME280;62475;52.192;5.396;2022-07-29T05:34:40;101794.78;;;14.99;73.70
74125;BME280;62475;52.192;5.396;2022-07-29T05:37:05;101797.78;;;15.02;74.73
74125;BME280;62475;52.192;5.396;2022-07-29T05:39:31;101785.44;;;14.95;74.95
74125;BME280;62475;52.192;5.396;2022-07-29T05:41:56;101798.59;;;15.03;72.83
74125;BME280;62475;52.192;5.396;2022-07-29T05:44:21;101785.97;;;14.97;73.62
74125;BME280;62475;52.192;5.396;2022-07-29T05:46:47;101817.06;;;15.07;73.80
74125;BME280;62475;52.192;5.396;2022-07-29T05:49:12;101811.13;;;15.14;73.09
74125;BME280;62475;52.192;5.396;2022-07-29T05:51:37;101784.56;;;14.99;73.46
74125;BME280;62475;52.192;5.396;2022-07-29T05:54:03;101761.84;;;14.84;73.44
74125;BME280;62475;52.192;5.396;2022-07-29T05:56:28;101809.34;;;15.23;72.60
74125;BME280;62475;52.192;5.396;2022-07-29T05:58:54;101796.13;;;15.20;72.12
74125;BME280;62475;52.192;5.396;2022-07-29T06:01:19;101755.34;;;15.07;72.83
74125;BME280;62475;52.192;5.396;2022-07-29T06:03:45;101778.81;;;15.28;71.44
74125;BME280;62475;52.192;5.396;2022-07-29T06:06:10;101807.53;;;15.96;70.08
74125;BME280;62475;52.192;5.396;2022-07-29T06:08:36;101815.75;;;16.15;68.86
74125;BME280;62475;52.192;5.396;2022-07-29T06:11:03;101805.06;;;16.35;68.73
74125;BME280;62475;52.192;5.396;2022-07-29T06:13:28;101802.59;;;16.61;67.76
74125;BME280;62475;52.192;5.396;2022-07-29T06:15:54;101802.81;;;16.51;68.05
74125;BME280;62475;52.192;5.396;2022-07-29T06:18:19;101804.94;;;16.67;66.75
74125;BME280;62475;52.192;5.396;2022-07-29T06:20:46;101796.13;;;16.65;67.39
74125;BME280;62475;52.192;5.396;2022-07-29T06:23:11;101798.97;;;16.74;68.28
74125;BME280;62475;52.192;5.396;2022-07-29T06:25:37;101788.78;;;16.83;66.34
74125;BME280;62475;52.192;5.396;2022-07-29T06:28:03;101808.78;;;16.93;65.90
74125;BME280;62475;52.192;5.396;2022-07-29T06:30:29;101781.22;;;16.61;67.41
74125;BME280;62475;52.192;5.396;2022-07-29T06:32:55;101799.91;;;16.42;67.59
74125;BME280;62475;52.192;5.396;2022-07-29T06:35:20;101841.50;;;16.42;67.44
74125;BME280;62475;52.192;5.396;2022-07-29T06:37:46;101848.91;;;16.33;68.28
74125;BME280;62475;52.192;5.396;2022-07-29T06:40:12;101851.72;;;16.60;66.23
74125;BME280;62475;52.192;5.396;2022-07-29T06:42:56;101826.44;;;16.62;66.66
74125;BME280;62475;52.192;5.396;2022-07-29T06:45:21;101845.00;;;16.34;67.66
74125;BME280;62475;52.192;5.396;2022-07-29T06:47:46;101832.69;;;16.13;66.78
74125;BME280;62475;52.192;5.396;2022-07-29T06:50:12;101839.25;;;16.17;68.01
74125;BME280;62475;52.192;5.396;2022-07-29T06:52:38;101836.72;;;16.48;66.48
74125;BME280;62475;52.192;5.396;2022-07-29T06:55:04;101851.50;;;16.43;66.65
74125;BME280;62475;52.192;5.396;2022-07-29T06:57:30;101848.22;;;16.55;66.89
74125;BME280;62475;52.192;5.396;2022-07-29T06:59:58;101842.84;;;16.45;67.33
74125;BME280;62475;52.192;5.396;2022-07-29T07:02:23;101838.53;;;16.25;67.73
74125;BME280;62475;52.192;5.396;2022-07-29T07:04:49;101851.78;;;16.28;68.79
74125;BME280;62475;52.192;5.396;2022-07-29T07:07:14;101846.31;;;16.10;68.72
74125;BME280;62475;52.192;5.396;2022-07-29T07:09:39;101862.34;;;16.13;68.28
74125;BME280;62475;52.192;5.396;2022-07-29T07:12:05;101853.34;;;16.21;68.26
74125;BME280;62475;52.192;5.396;2022-07-29T07:14:31;101845.13;;;16.43;67.19
74125;BME280;62475;52.192;5.396;2022-07-29T07:16:56;101843.06;;;16.35;67.55
74125;BME280;62475;52.192;5.396;2022-07-29T07:19:21;101852.31;;;16.71;66.73
74125;BME280;62475;52.192;5.396;2022-07-29T07:21:47;101858.63;;;16.98;66.13
74125;BME280;62475;52.192;5.396;2022-07-29T07:24:12;101854.31;;;16.92;65.72
74125;BME280;62475;52.192;5.396;2022-07-29T07:26:40;101837.53;;;17.33;64.79
74125;BME280;62475;52.192;5.396;2022-07-29T07:29:06;101847.56;;;17.43;63.36
74125;BME280;62475;52.192;5.396;2022-07-29T07:31:31;101836.81;;;17.63;62.58
74125;BME280;62475;52.192;5.396;2022-07-29T07:33:57;101844.72;;;18.31;62.71
74125;BME280;62475;52.192;5.396;2022-07-29T07:36:23;101844.84;;;18.74;60.72
74125;BME280;62475;52.192;5.396;2022-07-29T07:38:48;101831.47;;;19.27;59.77
74125;BME280;62475;52.192;5.396;2022-07-29T07:41:13;101843.09;;;19.80;58.30
74125;BME280;62475;52.192;5.396;2022-07-29T07:43:39;101822.94;;;19.06;58.70
74125;BME280;62475;52.192;5.396;2022-07-29T07:46:04;101831.50;;;19.44;58.33
74125;BME280;62475;52.192;5.396;2022-07-29T07:48:30;101826.09;;;19.31;58.51
74125;BME280;62475;52.192;5.396;2022-07-29T07:50:55;101815.75;;;19.22;60.03
74125;BME280;62475;52.192;5.396;2022-07-29T07:53:21;101818.53;;;19.05;60.04
74125;BME280;62475;52.192;5.396;2022-07-29T07:55:46;101812.41;;;18.61;61.37
74125;BME280;62475;52.192;5.396;2022-07-29T07:58:12;101831.41;;;18.59;62.43
74125;BME280;62475;52.192;5.396;2022-07-29T08:00:37;101828.13;;;18.65;63.49
74125;BME280;62475;52.192;5.396;2022-07-29T08:03:03;101828.59;;;18.50;63.03
74125;BME280;62475;52.192;5.396;2022-07-29T08:05:28;101818.16;;;18.64;63.42
74125;BME280;62475;52.192;5.396;2022-07-29T08:07:54;101819.69;;;18.40;63.18
74125;BME280;62475;52.192;5.396;2022-07-29T08:10:19;101817.84;;;18.27;64.47
74125;BME280;62475;52.192;5.396;2022-07-29T08:13:04;101820.97;;;18.34;63.49
74125;BME280;62475;52.192;5.396;2022-07-29T08:15:30;101801.16;;;18.27;64.20
74125;BME280;62475;52.192;5.396;2022-07-29T08:17:55;101819.19;;;18.38;64.51
74125;BME280;62475;52.192;5.396;2022-07-29T08:20:21;101816.63;;;18.10;63.94
74125;BME280;62475;52.192;5.396;2022-07-29T08:22:46;101823.56;;;18.30;63.74
74125;BME280;62475;52.192;5.396;2022-07-29T08:25:11;101819.63;;;18.70;62.86
74125;BME280;62475;52.192;5.396;2022-07-29T08:27:36;101818.03;;;18.78;64.12
74125;BME280;62475;52.192;5.396;2022-07-29T08:30:03;101810.94;;;18.16;64.75
74125;BME280;62475;52.192;5.396;2022-07-29T08:32:28;101825.00;;;18.58;65.04
74125;BME280;62475;52.192;5.396;2022-07-29T08:34:54;101808.50;;;18.87;63.73
74125;BME280;62475;52.192;5.396;2022-07-29T08:37:19;101829.69;;;19.05;63.02
74125;BME280;62475;52.192;5.396;2022-07-29T08:39:44;101825.25;;;19.21;61.93
74125;BME280;62475;52.192;5.396;2022-07-29T08:42:10;101795.75;;;19.03;62.28
74125;BME280;62475;52.192;5.396;2022-07-29T08:44:36;101837.88;;;19.70;61.52
74125;BME280;62475;52.192;5.396;2022-07-29T08:47:02;101833.88;;;19.80;58.85
74125;BME280;62475;52.192;5.396;2022-07-29T08:49:27;101842.19;;;20.05;60.23
74125;BME280;62475;52.192;5.396;2022-07-29T08:51:53;101842.13;;;20.22;56.96
74125;BME280;62475;52.192;5.396;2022-07-29T08:54:19;101825.06;;;20.33;58.18
74125;BME280;62475;52.192;5.396;2022-07-29T08:56:51;101836.25;;;20.53;58.78
74125;BME280;62475;52.192;5.396;2022-07-29T08:59:19;101827.56;;;21.04;56.07
74125;BME280;62475;52.192;5.396;2022-07-29T09:01:46;101828.63;;;20.33;55.38
74125;BME280;62475;52.192;5.396;2022-07-29T09:04:13;101830.47;;;20.87;56.10
74125;BME280;62475;52.192;5.396;2022-07-29T09:06:43;101837.00;;;20.33;57.87
74125;BME280;62475;52.192;5.396;2022-07-29T09:09:09;101826.03;;;20.66;55.57
74125;BME280;62475;52.192;5.396;2022-07-29T09:11:34;101821.63;;;20.56;57.91
74125;BME280;62475;52.192;5.396;2022-07-29T09:14:00;101817.69;;;21.07;55.37
74125;BME280;62475;52.192;5.396;2022-07-29T09:16:25;101826.44;;;20.76;58.16
74125;BME280;62475;52.192;5.396;2022-07-29T09:18:50;101818.25;;;21.00;55.89
74125;BME280;62475;52.192;5.396;2022-07-29T09:21:17;101817.81;;;21.64;54.41
74125;BME280;62475;52.192;5.396;2022-07-29T09:26:36;101810.03;;;22.02;51.78
74125;BME280;62475;52.192;5.396;2022-07-29T09:29:19;101818.84;;;21.80;52.43
74125;BME280;62475;52.192;5.396;2022-07-29T09:31:48;101826.06;;;21.81;53.40
74125;BME280;62475;52.192;5.396;2022-07-29T09:34:17;101828.53;;;21.62;53.79
74125;BME280;62475;52.192;5.396;2022-07-29T09:36:44;101832.88;;;21.71;54.57
74125;BME280;62475;52.192;5.396;2022-07-29T09:39:10;101813.19;;;21.68;53.88
74125;BME280;62475;52.192;5.396;2022-07-29T09:41:52;101828.91;;;21.72;52.00
74125;BME280;62475;52.192;5.396;2022-07-29T09:44:18;101816.59;;;21.40;52.12
74125;BME280;62475;52.192;5.396;2022-07-29T09:46:56;101821.41;;;21.85;52.23
74125;BME280;62475;52.192;5.396;2022-07-29T09:49:22;101822.16;;;21.61;52.53
74125;BME280;62475;52.192;5.396;2022-07-29T09:52:08;101817.25;;;21.70;52.11
74125;BME280;62475;52.192;5.396;2022-07-29T09:54:37;101798.03;;;21.36;53.28
74125;BME280;62475;52.192;5.396;2022-07-29T09:57:07;101814.09;;;21.60;53.50
74125;BME280;62475;52.192;5.396;2022-07-29T09:59:34;101805.94;;;21.99;52.61
74125;BME280;62475;52.192;5.396;2022-07-29T10:02:00;101810.25;;;21.97;52.63
74125;BME280;62475;52.192;5.396;2022-07-29T10:04:52;101809.22;;;22.01;53.91
74125;BME280;62475;52.192;5.396;2022-07-29T10:07:17;101813.03;;;21.97;53.23
74125;BME280;62475;52.192;5.396;2022-07-29T10:09:58;101810.84;;;22.14;54.20
74125;BME280;62475;52.192;5.396;2022-07-29T10:12:24;101811.56;;;22.35;53.60
74125;BME280;62475;52.192;5.396;2022-07-29T10:14:50;101808.69;;;22.56;52.44
74125;BME280;62475;52.192;5.396;2022-07-29T10:17:16;101824.41;;;22.73;51.72
74125;BME280;62475;52.192;5.396;2022-07-29T10:19:42;101816.19;;;21.63;53.31
74125;BME280;62475;52.192;5.396;2022-07-29T10:22:09;101818.50;;;21.81;56.58
74125;BME280;62475;52.192;5.396;2022-07-29T10:24:35;101816.69;;;22.09;52.82
74125;BME280;62475;52.192;5.396;2022-07-29T10:27:03;101819.16;;;22.59;51.77
74125;BME280;62475;52.192;5.396;2022-07-29T10:29:29;101814.03;;;22.73;50.45
74125;BME280;62475;52.192;5.396;2022-07-29T10:32:16;101820.22;;;23.18;50.47
74125;BME280;62475;52.192;5.396;2022-07-29T10:40:14;101810.75;;;22.47;50.70
74125;BME280;62475;52.192;5.396;2022-07-29T10:43:26;101783.00;;;23.06;48.27
74125;BME280;62475;52.192;5.396;2022-07-29T10:45:56;101807.44;;;23.05;48.53
74125;BME280;62475;52.192;5.396;2022-07-29T10:48:22;101779.72;;;22.28;51.74
74125;BME280;62475;52.192;5.396;2022-07-29T10:53:46;101818.31;;;22.95;50.06
74125;BME280;62475;52.192;5.396;2022-07-29T10:56:29;101815.22;;;22.72;49.98
74125;BME280;62475;52.192;5.396;2022-07-29T11:01:52;101802.19;;;23.87;48.47
74125;BME280;62475;52.192;5.396;2022-07-29T11:07:08;101818.22;;;22.79;50.92
74125;BME280;62475;52.192;5.396;2022-07-29T11:09:34;101806.09;;;23.54;48.85
74125;BME280;62475;52.192;5.396;2022-07-29T11:11:59;101808.09;;;24.13;47.16
74125;BME280;62475;52.192;5.396;2022-07-29T11:14:59;101805.00;;;24.49;46.11
74125;BME280;62475;52.192;5.396;2022-07-29T11:17:26;101802.97;;;23.44;50.01
74125;BME280;62475;52.192;5.396;2022-07-29T11:19:52;101807.66;;;23.12;49.25
74125;BME280;62475;52.192;5.396;2022-07-29T11:22:37;101803.84;;;24.03;48.29
74125;BME280;62475;52.192;5.396;2022-07-29T11:25:16;101798.28;;;23.91;46.29
74125;BME280;62475;52.192;5.396;2022-07-29T11:27:44;101803.63;;;23.53;47.89
74125;BME280;62475;52.192;5.396;2022-07-29T11:30:10;101794.09;;;24.63;46.05
74125;BME280;62475;52.192;5.396;2022-07-29T11:32:39;101815.16;;;24.22;44.87
74125;BME280;62475;52.192;5.396;2022-07-29T11:35:21;101806.25;;;24.83;44.98
74125;BME280;62475;52.192;5.396;2022-07-29T11:38:23;101807.84;;;24.18;46.57
74125;BME280;62475;52.192;5.396;2022-07-29T11:43:52;101806.03;;;23.39;49.05
74125;BME280;62475;52.192;5.396;2022-07-29T11:49:06;101793.25;;;23.53;47.82
74125;BME280;62475;52.192;5.396;2022-07-29T11:51:33;101793.97;;;24.91;45.92
74125;BME280;62475;52.192;5.396;2022-07-29T11:53:59;101805.78;;;23.72;47.87
74125;BME280;62475;52.192;5.396;2022-07-29T11:56:25;101792.22;;;23.46;48.60
74125;BME280;62475;52.192;5.396;2022-07-29T11:59:07;101812.03;;;23.96;47.65
74125;BME280;62475;52.192;5.396;2022-07-29T12:01:34;101776.16;;;23.58;47.65
74125;BME280;62475;52.192;5.396;2022-07-29T12:04:04;101807.03;;;23.74;46.09
74125;BME280;62475;52.192;5.396;2022-07-29T12:06:29;101805.56;;;23.37;48.09
74125;BME280;62475;52.192;5.396;2022-07-29T12:08:55;101802.84;;;23.52;48.65
74125;BME280;62475;52.192;5.396;2022-07-29T12:11:20;101800.69;;;23.34;50.38
74125;BME280;62475;52.192;5.396;2022-07-29T12:13:46;101796.41;;;23.52;50.65
74125;BME280;62475;52.192;5.396;2022-07-29T12:16:11;101798.50;;;24.29;47.78
74125;BME280;62475;52.192;5.396;2022-07-29T12:18:36;101813.63;;;24.91;46.58
74125;BME280;62475;52.192;5.396;2022-07-29T12:21:02;101798.63;;;25.02;47.64
74125;BME280;62475;52.192;5.396;2022-07-29T12:23:29;101798.94;;;25.16;47.88
74125;BME280;62475;52.192;5.396;2022-07-29T12:25:55;101799.03;;;25.39;46.05
74125;BME280;62475;52.192;5.396;2022-07-29T12:28:20;101805.44;;;23.89;49.51
74125;BME280;62475;52.192;5.396;2022-07-29T12:30:48;101801.66;;;24.28;49.29
74125;BME280;62475;52.192;5.396;2022-07-29T12:33:17;101794.03;;;24.59;49.01
74125;BME280;62475;52.192;5.396;2022-07-29T12:35:46;101797.19;;;25.46;47.48
74125;BME280;62475;52.192;5.396;2022-07-29T12:38:13;101810.03;;;25.09;47.23
74125;BME280;62475;52.192;5.396;2022-07-29T12:40:39;101803.03;;;24.03;48.70
74125;BME280;62475;52.192;5.396;2022-07-29T12:43:16;101815.44;;;24.02;49.60
74125;BME280;62475;52.192;5.396;2022-07-29T12:45:44;101815.59;;;24.40;49.01
74125;BME280;62475;52.192;5.396;2022-07-29T12:48:10;101802.63;;;23.73;52.10
74125;BME280;62475;52.192;5.396;2022-07-29T12:50:50;101799.25;;;23.68;51.29
74125;BME280;62475;52.192;5.396;2022-07-29T12:53:16;101808.56;;;24.30;51.10
74125;BME280;62475;52.192;5.396;2022-07-29T12:55:50;101792.53;;;23.56;51.51
74125;BME280;62475;52.192;5.396;2022-07-29T12:58:26;101782.81;;;23.82;49.67
74125;BME280;62475;52.192;5.396;2022-07-29T13:01:13;101794.06;;;24.13;49.50
74125;BME280;62475;52.192;5.396;2022-07-29T13:11:31;101788.56;;;24.82;46.41
74125;BME280;62475;52.192;5.396;2022-07-29T13:13:57;101784.44;;;24.45;47.72
74125;BME280;62475;52.192;5.396;2022-07-29T13:16:22;101793.72;;;24.64;47.93
74125;BME280;62475;52.192;5.396;2022-07-29T13:18:48;101796.88;;;24.13;49.47
74125;BME280;62475;52.192;5.396;2022-07-29T13:21:15;101798.13;;;24.15;49.15
74125;BME280;62475;52.192;5.396;2022-07-29T13:23:40;101769.34;;;23.59;49.89
74125;BME280;62475;52.192;5.396;2022-07-29T13:26:07;101800.53;;;23.86;50.27
74125;BME280;62475;52.192;5.396;2022-07-29T13:28:33;101784.31;;;24.57;47.22
74125;BME280;62475;52.192;5.396;2022-07-29T13:30:59;101789.13;;;24.56;47.64
74125;BME280;62475;52.192;5.396;2022-07-29T13:33:24;101796.97;;;24.32;49.01
74125;BME280;62475;52.192;5.396;2022-07-29T13:35:50;101789.88;;;24.22;49.16
74125;BME280;62475;52.192;5.396;2022-07-29T13:38:15;101800.38;;;24.56;48.98